sensor_id;sensor_type;location;lat;lon;timestamp;temperature;humidity
57030;DHT22;42920;45.306;20.448;2022-09-03T00:05:18;461.70;2380.80
57030;DHT22;42920;45.306;20.448;2022-09-03T00:07:55;486.40;2380.80
57030;DHT22;42920;45.306;20.448;2022-09-03T00:10:28;486.50;2380.80
57030;DHT22;42920;45.306;20.448;2022-09-03T00:12:58;486.50;2380.80
57030;DHT22;42920;45.306;20.448;2022-09-03T00:15:27;486.50;2380.80
57030;DHT22;42920;45.306;20.448;2022-09-03T00:20:43;486.40;2380.80
57030;DHT22;42920;45.306;20.448;2022-09-03T00:23:15;486.50;2380.80
57030;DHT22;42920;45.306;20.448;2022-09-03T00:28:22;486.50;2380.80
57030;DHT22;42920;45.306;20.448;2022-09-03T00:30:50;486.50;2380.80
57030;DHT22;42920;45.306;20.448;2022-09-03T00:33:22;486.50;2380.80
57030;DHT22;42920;45.306;20.448;2022-09-03T00:38:30;486.50;2380.80
57030;DHT22;42920;45.306;20.448;2022-09-03T00:41:32;486.50;2380.80
57030;DHT22;42920;45.306;20.448;2022-09-03T00:47:11;486.50;2380.80
57030;DHT22;42920;45.306;20.448;2022-09-03T00:49:42;486.50;2380.80
57030;DHT22;42920;45.306;20.448;2022-09-03T01:00:45;486.50;2380.80
57030;DHT22;42920;45.306;20.448;2022-09-03T01:09:30;486.50;2380.80
57030;DHT22;42920;45.306;20.448;2022-09-03T01:14:14;486.40;2380.80
57030;DHT22;42920;45.306;20.448;2022-09-03T01:17:07;461.70;2380.80
57030;DHT22;42920;45.306;20.448;2022-09-03T01:19:53;461.70;2380.80
57030;DHT22;42920;45.306;20.448;2022-09-03T01:29:17;461.70;2150.40
57030;DHT22;42920;45.306;20.448;2022-09-03T01:39:49;461.70;2380.80
57030;DHT22;42920;45.306;20.448;2022-09-03T01:48:36;486.50;2380.80
57030;DHT22;42920;45.306;20.448;2022-09-03T01:51:24;486.50;2380.80
57030;DHT22;42920;45.306;20.448;2022-09-03T01:53:59;486.40;2380.80
57030;DHT22;42920;45.306;20.448;2022-09-03T01:59:36;486.50;2380.80
57030;DHT22;42920;45.306;20.448;2022-09-03T02:02:09;486.50;2380.80
57030;DHT22;42920;45.306;20.448;2022-09-03T02:04:39;486.50;2380.80
57030;DHT22;42920;45.306;20.448;2022-09-03T02:07:05;486.50;2380.80
57030;DHT22;42920;45.306;20.448;2022-09-03T02:09:31;486.50;2380.80
57030;DHT22;42920;45.306;20.448;2022-09-03T02:12:21;486.50;2380.80
57030;DHT22;42920;45.306;20.448;2022-09-03T02:14:46;486.50;2380.80
57030;DHT22;42920;45.306;20.448;2022-09-03T02:17:12;486.50;2380.80
57030;DHT22;42920;45.306;20.448;2022-09-03T02:19:38;486.50;2380.80
57030;DHT22;42920;45.306;20.448;2022-09-03T02:22:04;486.60;2380.80
57030;DHT22;42920;45.306;20.448;2022-09-03T02:24:31;486.50;2380.80
57030;DHT22;42920;45.306;20.448;2022-09-03T02:26:57;486.60;2380.80
57030;DHT22;42920;45.306;20.448;2022-09-03T02:29:23;486.60;2380.80
57030;DHT22;42920;45.306;20.448;2022-09-03T02:31:50;486.60;2380.80
57030;DHT22;42920;45.306;20.448;2022-09-03T02:34:16;486.50;2380.80
57030;DHT22;42920;45.306;20.448;2022-09-03T02:36:44;486.50;2380.80
57030;DHT22;42920;45.306;20.448;2022-09-03T02:39:11;486.50;2380.80
57030;DHT22;42920;45.306;20.448;2022-09-03T02:41:37;486.40;2380.80
57030;DHT22;42920;45.306;20.448;2022-09-03T02:44:26;486.50;2380.80
57030;DHT22;42920;45.306;20.448;2022-09-03T02:47:04;486.40;2380.80
57030;DHT22;42920;45.306;20.448;2022-09-03T02:49:31;486.40;2380.80
57030;DHT22;42920;45.306;20.448;2022-09-03T02:52:02;486.40;2380.80
57030;DHT22;42920;45.306;20.448;2022-09-03T02:54:34;486.40;2380.80
57030;DHT22;42920;45.306;20.448;2022-09-03T02:57:05;486.40;2380.80
57030;DHT22;42920;45.306;20.448;2022-09-03T02:59:31;486.40;2380.80
57030;DHT22;42920;45.306;20.448;2022-09-03T03:01:57;486.40;2380.80
57030;DHT22;42920;45.306;20.448;2022-09-03T03:04:23;486.40;2380.80
57030;DHT22;42920;45.306;20.448;2022-09-03T03:06:48;461.70;2380.80
57030;DHT22;42920;45.306;20.448;2022-09-03T03:09:17;486.40;2380.80
57030;DHT22;42920;45.306;20.448;2022-09-03T03:11:43;486.40;2380.80
57030;DHT22;42920;45.306;20.448;2022-09-03T03:14:09;486.40;2380.80
57030;DHT22;42920;45.306;20.448;2022-09-03T03:16:35;486.40;2099.20
57030;DHT22;42920;45.306;20.448;2022-09-03T03:19:01;486.40;2201.60
57030;DHT22;42920;45.306;20.448;2022-09-03T03:21:27;486.50;2380.80
57030;DHT22;42920;45.306;20.448;2022-09-03T03:23:53;486.50;2380.80
57030;DHT22;42920;45.306;20.448;2022-09-03T03:26:20;486.50;2380.80
57030;DHT22;42920;45.306;20.448;2022-09-03T03:28:54;486.40;2380.80
57030;DHT22;42920;45.306;20.448;2022-09-03T03:31:21;486.40;2380.80
57030;DHT22;42920;45.306;20.448;2022-09-03T03:33:55;486.40;2380.80
57030;DHT22;42920;45.306;20.448;2022-09-03T03:36:22;486.40;2380.80
57030;DHT22;42920;45.306;20.448;2022-09-03T03:38:48;486.40;2380.80
57030;DHT22;42920;45.306;20.448;2022-09-03T03:41:19;486.40;2380.80
57030;DHT22;42920;45.306;20.448;2022-09-03T03:43:46;486.40;2380.80
57030;DHT22;42920;45.306;20.448;2022-09-03T03:46:13;486.40;2380.80
57030;DHT22;42920;45.306;20.448;2022-09-03T03:48:41;486.40;2380.80
57030;DHT22;42920;45.306;20.448;2022-09-03T03:51:08;486.50;2380.80
57030;DHT22;42920;45.306;20.448;2022-09-03T03:53:36;486.40;2380.80
57030;DHT22;42920;45.306;20.448;2022-09-03T03:56:06;486.40;2380.80
57030;DHT22;42920;45.306;20.448;2022-09-03T03:58:35;486.40;2380.80
57030;DHT22;42920;45.306;20.448;2022-09-03T04:01:28;486.50;2380.80
57030;DHT22;42920;45.306;20.448;2022-09-03T04:03:55;486.50;2380.80
57030;DHT22;42920;45.306;20.448;2022-09-03T04:06:21;486.50;2380.80
57030;DHT22;42920;45.306;20.448;2022-09-03T04:08:47;486.50;2380.80
57030;DHT22;42920;45.306;20.448;2022-09-03T04:11:16;486.50;2380.80
57030;DHT22;42920;45.306;20.448;2022-09-03T04:13:44;486.50;2380.80
57030;DHT22;42920;45.306;20.448;2022-09-03T04:16:12;486.50;2380.80
57030;DHT22;42920;45.306;20.448;2022-09-03T04:18:39;486.60;2380.80
57030;DHT22;42920;45.306;20.448;2022-09-03T04:21:08;486.60;2380.80
57030;DHT22;42920;45.306;20.448;2022-09-03T04:23:38;486.60;2380.80
57030;DHT22;42920;45.306;20.448;2022-09-03T04:26:05;486.50;2380.80
57030;DHT22;42920;45.306;20.448;2022-09-03T04:28:32;486.60;2380.80
57030;DHT22;42920;45.306;20.448;2022-09-03T04:31:01;486.60;2380.80
57030;DHT22;42920;45.306;20.448;2022-09-03T04:33:29;486.60;2380.80
57030;DHT22;42920;45.306;20.448;2022-09-03T04:36:15;486.50;2380.80
57030;DHT22;42920;45.306;20.448;2022-09-03T04:38:43;486.60;2380.80
57030;DHT22;42920;45.306;20.448;2022-09-03T04:41:12;486.60;2380.80
57030;DHT22;42920;45.306;20.448;2022-09-03T04:43:38;486.60;2380.80
57030;DHT22;42920;45.306;20.448;2022-09-03T04:46:06;486.60;2380.80
57030;DHT22;42920;45.306;20.448;2022-09-03T04:48:34;486.60;2380.80
57030;DHT22;42920;45.306;20.448;2022-09-03T04:51:03;486.60;2380.80
57030;DHT22;42920;45.306;20.448;2022-09-03T04:53:37;486.60;2380.80
57030;DHT22;42920;45.306;20.448;2022-09-03T04:56:11;486.70;2380.80
57030;DHT22;42920;45.306;20.448;2022-09-03T04:58:37;486.70;2380.80
57030;DHT22;42920;45.306;20.448;2022-09-03T05:01:10;486.70;2380.80
57030;DHT22;42920;45.306;20.448;2022-09-03T05:03:36;486.70;2380.80
57030;DHT22;42920;45.306;20.448;2022-09-03T05:06:03;486.70;2380.80
57030;DHT22;42920;45.306;20.448;2022-09-03T05:08:31;486.70;2380.80
57030;DHT22;42920;45.306;20.448;2022-09-03T05:11:00;486.70;2380.80
57030;DHT22;42920;45.306;20.448;2022-09-03T05:13:27;486.70;2380.80
57030;DHT22;42920;45.306;20.448;2022-09-03T05:16:01;486.70;2380.80
57030;DHT22;42920;45.306;20.448;2022-09-03T05:18:28;486.70;2380.80
57030;DHT22;42920;45.306;20.448;2022-09-03T05:21:09;486.70;2380.80
57030;DHT22;42920;45.306;20.448;2022-09-03T05:23:37;486.80;2380.80
57030;DHT22;42920;45.306;20.448;2022-09-03T05:26:06;486.70;2380.80
57030;DHT22;42920;45.306;20.448;2022-09-03T05:28:36;486.70;2380.80
57030;DHT22;42920;45.306;20.448;2022-09-03T05:31:05;486.70;2380.80
57030;DHT22;42920;45.306;20.448;2022-09-03T05:33:36;486.70;2380.80
57030;DHT22;42920;45.306;20.448;2022-09-03T05:36:10;486.70;2380.80
57030;DHT22;42920;45.306;20.448;2022-09-03T05:38:37;486.60;2380.80
57030;DHT22;42920;45.306;20.448;2022-09-03T05:41:05;486.70;2380.80
57030;DHT22;42920;45.306;20.448;2022-09-03T05:43:32;486.70;2380.80
57030;DHT22;42920;45.306;20.448;2022-09-03T05:46:10;486.80;2380.80
57030;DHT22;42920;45.306;20.448;2022-09-03T05:48:37;486.80;2380.80
57030;DHT22;42920;45.306;20.448;2022-09-03T05:51:07;486.80;2380.80
57030;DHT22;42920;45.306;20.448;2022-09-03T05:53:35;486.90;2380.80
57030;DHT22;42920;45.306;20.448;2022-09-03T05:56:04;487.00;2380.80
57030;DHT22;42920;45.306;20.448;2022-09-03T05:58:40;486.90;2380.80
57030;DHT22;42920;45.306;20.448;2022-09-03T06:01:14;486.90;2380.80
57030;DHT22;42920;45.306;20.448;2022-09-03T06:03:41;486.90;2380.80
57030;DHT22;42920;45.306;20.448;2022-09-03T06:06:08;487.00;2380.80
57030;DHT22;42920;45.306;20.448;2022-09-03T06:08:35;486.90;2380.80
57030;DHT22;42920;45.306;20.448;2022-09-03T06:11:03;486.90;2380.80
57030;DHT22;42920;45.306;20.448;2022-09-03T06:13:30;487.00;2380.80
57030;DHT22;42920;45.306;20.448;2022-09-03T06:15:58;486.90;2380.80
57030;DHT22;42920;45.306;20.448;2022-09-03T06:18:25;487.00;2380.80
57030;DHT22;42920;45.306;20.448;2022-09-03T06:20:55;486.90;2380.80
57030;DHT22;42920;45.306;20.448;2022-09-03T06:23:22;487.00;2380.80
57030;DHT22;42920;45.306;20.448;2022-09-03T06:25:58;487.00;2380.80
57030;DHT22;42920;45.306;20.448;2022-09-03T06:28:24;486.90;2380.80
57030;DHT22;42920;45.306;20.448;2022-09-03T06:30:52;486.80;2380.80
57030;DHT22;42920;45.306;20.448;2022-09-03T06:33:17;486.70;2380.80
57030;DHT22;42920;45.306;20.448;2022-09-03T06:35:44;486.70;2380.80
57030;DHT22;42920;45.306;20.448;2022-09-03T06:38:11;486.70;2380.80
57030;DHT22;42920;45.306;20.448;2022-09-03T06:40:37;486.70;2380.80
57030;DHT22;42920;45.306;20.448;2022-09-03T06:43:03;486.70;2380.80
57030;DHT22;42920;45.306;20.448;2022-09-03T06:45:29;486.60;2380.80
57030;DHT22;42920;45.306;20.448;2022-09-03T06:47:55;486.60;2380.80
57030;DHT22;42920;45.306;20.448;2022-09-03T06:50:21;486.70;2380.80
57030;DHT22;42920;45.306;20.448;2022-09-03T06:52:52;486.70;2380.80
57030;DHT22;42920;45.306;20.448;2022-09-03T06:55:20;486.70;2380.80
57030;DHT22;42920;45.306;20.448;2022-09-03T06:57:46;486.70;2380.80
57030;DHT22;42920;45.306;20.448;2022-09-03T07:00:13;486.70;2380.80
57030;DHT22;42920;45.306;20.448;2022-09-03T07:02:39;486.70;2380.80
57030;DHT22;42920;45.306;20.448;2022-09-03T07:05:06;486.70;2380.80
57030;DHT22;42920;45.306;20.448;2022-09-03T07:07:33;486.80;2380.80
57030;DHT22;42920;45.306;20.448;2022-09-03T07:09:58;486.80;2380.80
57030;DHT22;42920;45.306;20.448;2022-09-03T07:12:25;486.80;2380.80
57030;DHT22;42920;45.306;20.448;2022-09-03T07:14:51;486.90;2380.80
57030;DHT22;42920;45.306;20.448;2022-09-03T07:17:16;486.90;2380.80
57030;DHT22;42920;45.306;20.448;2022-09-03T07:19:42;487.00;2380.80
57030;DHT22;42920;45.306;20.448;2022-09-03T07:22:08;487.00;2380.80
57030;DHT22;42920;45.306;20.448;2022-09-03T07:24:34;487.00;2380.80
57030;DHT22;42920;45.306;20.448;2022-09-03T07:27:01;487.10;2380.80
57030;DHT22;42920;45.306;20.448;2022-09-03T07:29:27;487.10;2380.80
57030;DHT22;42920;45.306;20.448;2022-09-03T07:31:53;487.10;2380.80
57030;DHT22;42920;45.306;20.448;2022-09-03T07:34:20;487.10;2380.80
57030;DHT22;42920;45.306;20.448;2022-09-03T07:36:48;487.30;2380.80
57030;DHT22;42920;45.306;20.448;2022-09-03T07:39:16;487.10;2380.80
57030;DHT22;42920;45.306;20.448;2022-09-03T07:41:43;487.10;2380.80
57030;DHT22;42920;45.306;20.448;2022-09-03T07:44:11;487.10;2380.80
57030;DHT22;42920;45.306;20.448;2022-09-03T07:46:37;487.10;2380.80
57030;DHT22;42920;45.306;20.448;2022-09-03T07:49:05;487.10;2380.80
57030;DHT22;42920;45.306;20.448;2022-09-03T07:51:36;487.20;2380.80
57030;DHT22;42920;45.306;20.448;2022-09-03T07:54:04;487.20;2380.80
57030;DHT22;42920;45.306;20.448;2022-09-03T07:56:32;487.20;2380.80
57030;DHT22;42920;45.306;20.448;2022-09-03T07:59:00;487.20;2380.80
57030;DHT22;42920;45.306;20.448;2022-09-03T08:01:27;487.20;2380.80
57030;DHT22;42920;45.306;20.448;2022-09-03T08:03:54;487.30;2380.80
57030;DHT22;42920;45.306;20.448;2022-09-03T08:06:22;487.30;2380.80
57030;DHT22;42920;45.306;20.448;2022-09-03T08:08:54;512.00;2380.80
57030;DHT22;42920;45.306;20.448;2022-09-03T08:11:21;512.10;2380.80
57030;DHT22;42920;45.306;20.448;2022-09-03T08:13:52;512.10;2380.80
57030;DHT22;42920;45.306;20.448;2022-09-03T08:16:19;512.20;2380.80
57030;DHT22;42920;45.306;20.448;2022-09-03T08:18:45;512.20;2380.80
57030;DHT22;42920;45.306;20.448;2022-09-03T08:21:14;512.20;2380.80
57030;DHT22;42920;45.306;20.448;2022-09-03T08:23:45;512.20;2380.80
57030;DHT22;42920;45.306;20.448;2022-09-03T08:26:12;512.40;2380.80
57030;DHT22;42920;45.306;20.448;2022-09-03T08:28:39;512.50;2380.80
57030;DHT22;42920;45.306;20.448;2022-09-03T08:31:11;512.60;2380.80
57030;DHT22;42920;45.306;20.448;2022-09-03T08:33:44;512.60;2380.80
57030;DHT22;42920;45.306;20.448;2022-09-03T08:36:22;512.70;2380.80
57030;DHT22;42920;45.306;20.448;2022-09-03T08:38:49;512.80;2380.80
57030;DHT22;42920;45.306;20.448;2022-09-03T08:44:45;512.80;2380.80
57030;DHT22;42920;45.306;20.448;2022-09-03T08:47:32;512.70;2380.80
57030;DHT22;42920;45.306;20.448;2022-09-03T08:52:48;512.50;2380.80
57030;DHT22;42920;45.306;20.448;2022-09-03T08:55:30;512.50;2380.80
57030;DHT22;42920;45.306;20.448;2022-09-03T08:58:21;512.40;2380.80
57030;DHT22;42920;45.306;20.448;2022-09-03T09:03:37;512.50;2380.80
57030;DHT22;42920;45.306;20.448;2022-09-03T09:17:37;537.60;2406.40
57030;DHT22;42920;45.306;20.448;2022-09-03T09:22:56;537.70;2406.40
57030;DHT22;42920;45.306;20.448;2022-09-03T09:25:25;537.60;2406.40
57030;DHT22;42920;45.306;20.448;2022-09-03T09:28:18;537.60;2406.40
57030;DHT22;42920;45.306;20.448;2022-09-03T09:30:49;537.70;2406.40
57030;DHT22;42920;45.306;20.448;2022-09-03T09:33:17;537.70;2406.40
57030;DHT22;42920;45.306;20.448;2022-09-03T09:35:45;537.70;2406.40
57030;DHT22;42920;45.306;20.448;2022-09-03T09:38:12;537.80;2406.40
57030;DHT22;42920;45.306;20.448;2022-09-03T09:40:43;537.70;2406.40
57030;DHT22;42920;45.306;20.448;2022-09-03T09:43:19;537.60;2406.40
57030;DHT22;42920;45.306;20.448;2022-09-03T09:45:50;537.70;2406.40
57030;DHT22;42920;45.306;20.448;2022-09-03T09:48:24;537.70;2406.40
57030;DHT22;42920;45.306;20.448;2022-09-03T09:51:11;537.70;2406.40
57030;DHT22;42920;45.306;20.448;2022-09-03T09:53:39;537.70;2406.40
57030;DHT22;42920;45.306;20.448;2022-09-03T09:56:05;537.70;2406.40
57030;DHT22;42920;45.306;20.448;2022-09-03T09:58:33;537.70;2406.40
57030;DHT22;42920;45.306;20.448;2022-09-03T10:01:11;537.70;2406.40
57030;DHT22;42920;45.306;20.448;2022-09-03T10:03:56;537.70;2406.40
57030;DHT22;42920;45.306;20.448;2022-09-03T10:06:27;537.80;2406.40
57030;DHT22;42920;45.306;20.448;2022-09-03T10:12:01;537.90;2406.40
57030;DHT22;42920;45.306;20.448;2022-09-03T10:28:27;538.40;2406.40
57030;DHT22;42920;45.306;20.448;2022-09-03T10:33:55;563.30;2432.00
57030;DHT22;42920;45.306;20.448;2022-09-03T10:36:24;563.40;2432.00
57030;DHT22;42920;45.306;20.448;2022-09-03T10:39:03;563.40;2432.00
57030;DHT22;42920;45.306;20.448;2022-09-03T10:47:00;563.60;2432.00
57030;DHT22;42920;45.306;20.448;2022-09-03T10:55:22;563.60;2432.00
57030;DHT22;42920;45.306;20.448;2022-09-03T11:00:21;563.50;2432.00
57030;DHT22;42920;45.306;20.448;2022-09-03T11:06:04;563.40;2432.00
57030;DHT22;42920;45.306;20.448;2022-09-03T11:08:38;563.50;2432.00
57030;DHT22;42920;45.306;20.448;2022-09-03T11:11:28;563.40;2432.00
57030;DHT22;42920;45.306;20.448;2022-09-03T11:14:01;563.40;2432.00
57030;DHT22;42920;45.306;20.448;2022-09-03T11:16:43;563.60;2432.00
57030;DHT22;42920;45.306;20.448;2022-09-03T11:19:13;563.70;2432.00
57030;DHT22;42920;45.306;20.448;2022-09-03T11:21:41;563.80;2432.00
57030;DHT22;42920;45.306;20.448;2022-09-03T11:24:34;563.80;2432.00
57030;DHT22;42920;45.306;20.448;2022-09-03T11:32:25;564.00;2432.00
57030;DHT22;42920;45.306;20.448;2022-09-03T11:37:27;589.50;2432.00
57030;DHT22;42920;45.306;20.448;2022-09-03T11:40:10;614.70;2432.00
57030;DHT22;42920;45.306;20.448;2022-09-03T11:42:39;614.90;2432.00
57030;DHT22;42920;45.306;20.448;2022-09-03T11:45:22;615.20;2432.00
57030;DHT22;42920;45.306;20.448;2022-09-03T11:47:49;615.30;2432.00
57030;DHT22;42920;45.306;20.448;2022-09-03T11:52:46;640.30;2432.00
57030;DHT22;42920;45.306;20.448;2022-09-03T11:55:30;640.50;2432.00
57030;DHT22;42920;45.306;20.448;2022-09-03T12:00:24;640.60;2329.60
57030;DHT22;42920;45.306;20.448;2022-09-03T12:03:00;640.10;2432.00
57030;DHT22;42920;45.306;20.448;2022-09-03T12:19:50;614.80;2432.00
57030;DHT22;42920;45.306;20.448;2022-09-03T12:22:19;614.50;2432.00
57030;DHT22;42920;45.306;20.448;2022-09-03T12:24:45;614.40;2432.00
57030;DHT22;42920;45.306;20.448;2022-09-03T12:27:32;589.70;2432.00
57030;DHT22;42920;45.306;20.448;2022-09-03T12:30:00;589.70;2432.00
57030;DHT22;42920;45.306;20.448;2022-09-03T12:32:29;589.70;2432.00
57030;DHT22;42920;45.306;20.448;2022-09-03T12:34:57;589.70;2432.00
57030;DHT22;42920;45.306;20.448;2022-09-03T12:37:32;589.50;2432.00
57030;DHT22;42920;45.306;20.448;2022-09-03T12:47:22;589.20;2432.00
57030;DHT22;42920;45.306;20.448;2022-09-03T12:49:50;589.20;2432.00
57030;DHT22;42920;45.306;20.448;2022-09-03T12:57:23;589.20;2432.00
57030;DHT22;42920;45.306;20.448;2022-09-03T12:59:53;589.30;2432.00
57030;DHT22;42920;45.306;20.448;2022-09-03T13:02:25;589.50;2432.00
57030;DHT22;42920;45.306;20.448;2022-09-03T13:04:52;589.70;2432.00
57030;DHT22;42920;45.306;20.448;2022-09-03T13:07:30;614.40;2432.00
57030;DHT22;42920;45.306;20.448;2022-09-03T13:10:03;614.60;2432.00
57030;DHT22;42920;45.306;20.448;2022-09-03T13:12:41;614.80;2432.00
57030;DHT22;42920;45.306;20.448;2022-09-03T13:15:09;614.50;2432.00
57030;DHT22;42920;45.306;20.448;2022-09-03T13:17:46;614.40;2432.00
57030;DHT22;42920;45.306;20.448;2022-09-03T13:20:50;589.70;2432.00
57030;DHT22;42920;45.306;20.448;2022-09-03T13:29:20;615.30;2432.00
57030;DHT22;42920;45.306;20.448;2022-09-03T13:31:51;640.20;2432.00
57030;DHT22;42920;45.306;20.448;2022-09-03T13:34:25;640.40;2432.00
57030;DHT22;42920;45.306;20.448;2022-09-03T13:39:48;640.20;2432.00
57030;DHT22;42920;45.306;20.448;2022-09-03T13:42:24;615.30;2432.00
57030;DHT22;42920;45.306;20.448;2022-09-03T13:51:21;614.70;2432.00
57030;DHT22;42920;45.306;20.448;2022-09-03T13:54:14;614.90;2432.00
57030;DHT22;42920;45.306;20.448;2022-09-03T13:56:58;615.10;2432.00
57030;DHT22;42920;45.306;20.448;2022-09-03T13:59:50;615.30;2432.00
57030;DHT22;42920;45.306;20.448;2022-09-03T14:05:35;614.90;2432.00
57030;DHT22;42920;45.306;20.448;2022-09-03T14:08:04;614.80;2432.00
57030;DHT22;42920;45.306;20.448;2022-09-03T14:19:00;640.10;2304.00
57030;DHT22;42920;45.306;20.448;2022-09-03T14:21:31;640.40;2304.00
57030;DHT22;42920;45.306;20.448;2022-09-03T14:26:34;640.50;2380.80
57030;DHT22;42920;45.306;20.448;2022-09-03T14:29:03;640.50;2304.00
57030;DHT22;42920;45.306;20.448;2022-09-03T14:34:25;640.70;2406.40
57030;DHT22;42920;45.306;20.448;2022-09-03T14:40:18;640.70;2304.00
57030;DHT22;42920;45.306;20.448;2022-09-03T14:57:00;615.20;2432.00
57030;DHT22;42920;45.306;20.448;2022-09-03T15:11:25;614.70;2432.00
57030;DHT22;42920;45.306;20.448;2022-09-03T15:14:14;614.70;2432.00
57030;DHT22;42920;45.306;20.448;2022-09-03T15:17:00;614.70;2432.00
57030;DHT22;42920;45.306;20.448;2022-09-03T15:22:38;614.90;2406.40
57030;DHT22;42920;45.306;20.448;2022-09-03T15:30:40;615.00;2432.00
57030;DHT22;42920;45.306;20.448;2022-09-03T15:33:10;615.00;2432.00
57030;DHT22;42920;45.306;20.448;2022-09-03T15:41:00;614.90;2432.00
57030;DHT22;42920;45.306;20.448;2022-09-03T15:43:31;614.80;2432.00
57030;DHT22;42920;45.306;20.448;2022-09-03T15:46:04;614.70;2432.00
57030;DHT22;42920;45.306;20.448;2022-09-03T15:49:43;614.60;2432.00
57030;DHT22;42920;45.306;20.448;2022-09-03T15:51:53;614.60;2432.00
57030;DHT22;42920;45.306;20.448;2022-09-03T15:54:40;614.40;2432.00
57030;DHT22;42920;45.306;20.448;2022-09-03T15:57:39;589.70;2432.00
57030;DHT22;42920;45.306;20.448;2022-09-03T16:00:10;589.60;2432.00
57030;DHT22;42920;45.306;20.448;2022-09-03T16:02:46;589.70;2432.00
57030;DHT22;42920;45.306;20.448;2022-09-03T16:05:45;589.50;2432.00
57030;DHT22;42920;45.306;20.448;2022-09-03T16:08:24;589.40;2432.00
57030;DHT22;42920;45.306;20.448;2022-09-03T16:16:12;589.10;2432.00
57030;DHT22;42920;45.306;20.448;2022-09-03T16:18:42;589.00;2432.00
57030;DHT22;42920;45.306;20.448;2022-09-03T16:29:16;564.00;2432.00
57030;DHT22;42920;45.306;20.448;2022-09-03T16:37:23;563.80;2432.00
57030;DHT22;42920;45.306;20.448;2022-09-03T16:42:59;563.70;2432.00
57030;DHT22;42920;45.306;20.448;2022-09-03T16:48:08;563.60;2432.00
57030;DHT22;42920;45.306;20.448;2022-09-03T16:50:39;563.50;2432.00
57030;DHT22;42920;45.306;20.448;2022-09-03T17:01:42;563.30;2432.00
57030;DHT22;42920;45.306;20.448;2022-09-03T17:04:22;563.30;2432.00
57030;DHT22;42920;45.306;20.448;2022-09-03T17:09:50;538.50;2406.40
57030;DHT22;42920;45.306;20.448;2022-09-03T17:18:08;538.30;2406.40
57030;DHT22;42920;45.306;20.448;2022-09-03T17:25:51;538.10;2406.40
57030;DHT22;42920;45.306;20.448;2022-09-03T17:28:41;538.10;2406.40
57030;DHT22;42920;45.306;20.448;2022-09-03T17:31:36;538.10;2406.40
57030;DHT22;42920;45.306;20.448;2022-09-03T17:40:34;538.10;2406.40
57030;DHT22;42920;45.306;20.448;2022-09-03T17:43:07;538.00;2406.40
57030;DHT22;42920;45.306;20.448;2022-09-03T18:00:03;537.90;2406.40
57030;DHT22;42920;45.306;20.448;2022-09-03T18:02:43;537.80;2406.40
57030;DHT22;42920;45.306;20.448;2022-09-03T18:20:57;512.90;2380.80
57030;DHT22;42920;45.306;20.448;2022-09-03T18:27:27;512.90;2380.80
57030;DHT22;42920;45.306;20.448;2022-09-03T18:30:14;512.80;2380.80
57030;DHT22;42920;45.306;20.448;2022-09-03T18:32:59;512.80;2380.80
57030;DHT22;42920;45.306;20.448;2022-09-03T18:35:44;512.70;2380.80
57030;DHT22;42920;45.306;20.448;2022-09-03T18:38:34;512.70;2380.80
57030;DHT22;42920;45.306;20.448;2022-09-03T18:54:28;512.60;2380.80
57030;DHT22;42920;45.306;20.448;2022-09-03T18:57:28;512.50;2380.80
57030;DHT22;42920;45.306;20.448;2022-09-03T19:00:15;512.30;2380.80
57030;DHT22;42920;45.306;20.448;2022-09-03T19:09:00;512.20;2380.80
57030;DHT22;42920;45.306;20.448;2022-09-03T19:15:00;512.20;2380.80
57030;DHT22;42920;45.306;20.448;2022-09-03T19:24:02;512.00;2380.80
57030;DHT22;42920;45.306;20.448;2022-09-03T19:27:12;487.30;2380.80
57030;DHT22;42920;45.306;20.448;2022-09-03T19:30:06;487.30;2380.80
57030;DHT22;42920;45.306;20.448;2022-09-03T19:32:56;487.30;2380.80
57030;DHT22;42920;45.306;20.448;2022-09-03T19:42:12;487.10;2380.80
57030;DHT22;42920;45.306;20.448;2022-09-03T19:51:13;487.10;2380.80
57030;DHT22;42920;45.306;20.448;2022-09-03T19:54:01;487.00;2380.80
57030;DHT22;42920;45.306;20.448;2022-09-03T19:56:48;487.00;2380.80
57030;DHT22;42920;45.306;20.448;2022-09-03T19:59:37;487.00;2380.80
57030;DHT22;42920;45.306;20.448;2022-09-03T20:02:23;487.00;2380.80
57030;DHT22;42920;45.306;20.448;2022-09-03T20:05:15;486.90;2380.80
57030;DHT22;42920;45.306;20.448;2022-09-03T20:08:00;486.80;2380.80
57030;DHT22;42920;45.306;20.448;2022-09-03T20:10:46;486.90;2380.80
57030;DHT22;42920;45.306;20.448;2022-09-03T20:13:18;486.80;2380.80
57030;DHT22;42920;45.306;20.448;2022-09-03T20:16:12;486.80;2380.80
57030;DHT22;42920;45.306;20.448;2022-09-03T20:32:23;486.70;2380.80
57030;DHT22;42920;45.306;20.448;2022-09-03T20:35:09;486.60;2380.80
57030;DHT22;42920;45.306;20.448;2022-09-03T20:46:07;486.60;2380.80
57030;DHT22;42920;45.306;20.448;2022-09-03T20:54:21;486.60;2380.80
57030;DHT22;42920;45.306;20.448;2022-09-03T21:05:22;486.50;2380.80
57030;DHT22;42920;45.306;20.448;2022-09-03T21:07:59;486.50;2380.80
57030;DHT22;42920;45.306;20.448;2022-09-03T21:13:13;486.50;2380.80
57030;DHT22;42920;45.306;20.448;2022-09-03T21:15:44;486.50;2380.80
57030;DHT22;42920;45.306;20.448;2022-09-03T21:18:19;486.50;2380.80
57030;DHT22;42920;45.306;20.448;2022-09-03T21:23:34;486.40;2380.80
57030;DHT22;42920;45.306;20.448;2022-09-03T21:28:44;461.70;2380.80
57030;DHT22;42920;45.306;20.448;2022-09-03T21:31:21;461.70;2380.80
57030;DHT22;42920;45.306;20.448;2022-09-03T21:33:52;486.40;2380.80
57030;DHT22;42920;45.306;20.448;2022-09-03T21:36:33;486.40;2380.80
57030;DHT22;42920;45.306;20.448;2022-09-03T21:39:11;486.50;2380.80
57030;DHT22;42920;45.306;20.448;2022-09-03T21:41:48;486.50;2380.80
57030;DHT22;42920;45.306;20.448;2022-09-03T21:47:17;461.70;2380.80
57030;DHT22;42920;45.306;20.448;2022-09-03T21:55:26;461.70;2380.80
57030;DHT22;42920;45.306;20.448;2022-09-03T21:58:05;486.40;2380.80
57030;DHT22;42920;45.306;20.448;2022-09-03T22:00:34;461.70;2380.80
57030;DHT22;42920;45.306;20.448;2022-09-03T22:03:00;461.50;2380.80